createdAt,value
2023-02-14T00:01:00.018Z,7.85
2023-02-14T00:03:41.409Z,7.33
2023-02-14T00:06:13.900Z,8.00
2023-02-14T00:08:46.035Z,8.65
2023-02-14T00:11:17.367Z,8.63
2023-02-14T00:14:03.005Z,8.20
2023-02-14T00:16:33.974Z,8.05
2023-02-14T00:19:07.398Z,8.10
2023-02-14T00:21:42.038Z,8.47
2023-02-14T00:24:21.994Z,7.93
2023-02-14T00:26:53.548Z,7.60
2023-02-14T00:29:28.973Z,7.97
2023-02-14T00:32:02.260Z,8.88
2023-02-14T00:34:33.446Z,7.40
2023-02-14T00:37:04.273Z,8.30
2023-02-14T00:39:35.260Z,8.02
2023-02-14T00:42:06.327Z,8.02
2023-02-14T00:47:28.848Z,7.90
2023-02-14T00:50:02.825Z,7.90
2023-02-14T00:52:33.740Z,8.15
2023-02-14T00:55:04.589Z,8.45
2023-02-14T00:57:37.771Z,8.13
2023-02-14T01:00:24.594Z,7.80
2023-02-14T01:03:03.223Z,7.32
2023-02-14T01:05:59.576Z,7.50
2023-02-14T01:08:32.038Z,8.13
2023-02-14T01:11:10.685Z,8.07
2023-02-14T01:13:41.894Z,8.20
2023-02-14T01:16:17.741Z,7.47
2023-02-14T01:18:49.034Z,8.50
2023-02-14T01:21:22.412Z,7.47
2023-02-14T01:23:57.092Z,7.68
2023-02-14T01:26:29.577Z,7.57
2023-02-14T01:29:00.945Z,7.70
2023-02-14T01:31:36.271Z,7.63
2023-02-14T01:34:07.712Z,7.60
2023-02-14T01:36:40.389Z,7.55
2023-02-14T01:39:15.068Z,7.38
2023-02-14T01:41:50.729Z,8.10
2023-02-14T01:44:51.775Z,7.70
2023-02-14T01:47:26.187Z,7.77
2023-02-14T01:50:00.952Z,7.60
2023-02-14T01:52:36.810Z,7.80
2023-02-14T01:55:12.025Z,7.80
2023-02-14T01:57:45.886Z,7.30
2023-02-14T02:00:31.413Z,7.10
2023-02-14T02:03:13.816Z,7.45
2023-02-14T02:05:51.542Z,6.88
2023-02-14T02:08:22.828Z,7.60
2023-02-14T02:10:53.855Z,7.57
2023-02-14T02:13:25.146Z,7.57
2023-02-14T02:16:09.535Z,7.20
2023-02-14T02:18:56.777Z,7.70
2023-02-14T02:21:56.064Z,7.38
2023-02-14T02:24:47.025Z,7.80
2023-02-14T02:27:39.888Z,7.65
2023-02-14T02:30:42.391Z,8.32
2023-02-14T02:33:58.106Z,7.68
2023-02-14T02:36:45.372Z,9.00
2023-02-14T02:39:29.675Z,9.82
2023-02-14T02:42:08.920Z,10.15
2023-02-14T02:44:51.739Z,8.95
2023-02-14T02:47:30.026Z,9.18
2023-02-14T02:50:21.347Z,9.73
2023-02-14T02:53:08.190Z,9.63
2023-02-14T02:56:00.133Z,8.70
2023-02-14T02:58:37.584Z,7.70
2023-02-14T03:01:12.682Z,8.30
2023-02-14T03:04:00.418Z,8.48
2023-02-14T03:06:32.908Z,8.75
2023-02-14T03:09:43.592Z,8.00
2023-02-14T03:12:45.515Z,8.83
2023-02-14T03:15:24.747Z,8.83
2023-02-14T03:18:04.815Z,8.35
2023-02-14T03:20:44.016Z,9.57
2023-02-14T03:23:21.101Z,8.88
2023-02-14T03:26:05.195Z,9.70
2023-02-14T03:28:45.271Z,9.43
2023-02-14T03:31:22.883Z,8.53
2023-02-14T03:34:05.381Z,8.57
2023-02-14T03:36:42.020Z,8.60
2023-02-14T03:39:19.527Z,8.98
2023-02-14T03:42:06.047Z,8.97
2023-02-14T03:44:39.121Z,9.15
2023-02-14T03:47:13.659Z,8.97
2023-02-14T03:49:49.595Z,9.15
2023-02-14T03:52:23.353Z,11.45
2023-02-14T03:54:59.760Z,9.13
2023-02-14T03:57:38.316Z,9.35
2023-02-14T04:00:11.259Z,8.98
2023-02-14T04:02:46.670Z,9.30
2023-02-14T04:05:22.241Z,8.73
2023-02-14T04:07:55.082Z,9.70
2023-02-14T04:10:27.226Z,8.75
2023-02-14T04:13:01.290Z,8.68
2023-02-14T04:15:35.154Z,9.38
2023-02-14T04:18:29.956Z,8.50
2023-02-14T04:21:01.390Z,9.90
2023-02-14T04:23:32.374Z,9.10
2023-02-14T04:26:03.739Z,8.60
2023-02-14T04:28:37.427Z,8.38
2023-02-14T04:31:10.664Z,8.35
2023-02-14T04:33:41.959Z,9.35
2023-02-14T04:36:12.800Z,8.93
2023-02-14T04:38:46.850Z,9.15
2023-02-14T04:41:17.620Z,8.60
2023-02-14T04:43:51.122Z,9.50
2023-02-14T04:46:21.845Z,9.00
2023-02-14T04:48:52.728Z,10.07
2023-02-14T04:51:24.319Z,9.45
2023-02-14T04:53:56.217Z,9.93
2023-02-14T04:56:27.979Z,9.00
2023-02-14T04:59:01.444Z,8.70
2023-02-14T05:01:32.359Z,8.80
2023-02-14T05:04:03.482Z,8.77
2023-02-14T05:06:34.303Z,9.23
2023-02-14T05:09:07.944Z,9.35
2023-02-14T05:11:38.791Z,10.27
2023-02-14T05:14:13.801Z,9.45
2023-02-14T05:16:44.659Z,9.70
2023-02-14T05:19:15.521Z,8.73
2023-02-14T05:21:47.372Z,9.40
2023-02-14T05:24:18.148Z,9.35
2023-02-14T05:26:49.068Z,10.02
2023-02-14T05:29:24.762Z,9.20
2023-02-14T05:31:55.953Z,8.60
2023-02-14T05:34:29.261Z,9.38
2023-02-14T05:37:00.010Z,9.93
2023-02-14T05:39:30.850Z,10.27
2023-02-14T05:42:01.741Z,10.20
2023-02-14T05:44:35.218Z,10.35
2023-02-14T05:47:06.188Z,10.18
2023-02-14T05:49:38.064Z,10.00
2023-02-14T05:52:09.506Z,10.02
2023-02-14T05:54:40.375Z,9.95
2023-02-14T05:57:11.139Z,11.10
2023-02-14T05:59:44.736Z,9.40
2023-02-14T06:02:16.147Z,9.50
2023-02-14T06:04:47.267Z,10.57
2023-02-14T06:07:18.063Z,9.95
2023-02-14T06:09:51.207Z,11.00
2023-02-14T06:12:22.291Z,10.60
2023-02-14T06:14:55.622Z,10.50
2023-02-14T06:17:26.606Z,11.20
2023-02-14T06:19:57.486Z,10.95
2023-02-14T06:22:30.994Z,10.55
2023-02-14T06:25:01.796Z,10.88
2023-02-14T06:27:36.267Z,11.38
2023-02-14T06:30:14.362Z,11.90
2023-02-14T06:32:45.371Z,11.27
2023-02-14T06:35:17.041Z,10.13
2023-02-14T06:37:48.308Z,12.52
2023-02-14T06:40:20.448Z,11.00
2023-02-14T06:42:51.442Z,11.93
2023-02-14T06:45:25.527Z,13.40
2023-02-14T06:48:00.024Z,12.20
2023-02-14T06:50:30.795Z,12.55
2023-02-14T06:53:01.576Z,12.10
2023-02-14T06:55:35.017Z,11.82
2023-02-14T06:58:05.986Z,12.70
2023-02-14T07:00:44.632Z,13.45
2023-02-14T07:03:15.378Z,13.27
2023-02-14T07:05:47.050Z,12.70
2023-02-14T07:08:17.839Z,13.13
2023-02-14T07:10:48.650Z,11.98
2023-02-14T07:13:19.404Z,13.18
2023-02-14T07:15:53.188Z,13.77
2023-02-14T07:18:24.535Z,13.90
2023-02-14T07:20:55.346Z,12.68
2023-02-14T07:23:26.264Z,12.93
2023-02-14T07:25:58.174Z,12.82
2023-02-14T07:28:31.351Z,12.90
2023-02-14T07:31:09.580Z,13.27
2023-02-14T07:33:40.464Z,12.90
2023-02-14T07:36:12.569Z,14.23
2023-02-14T07:38:43.454Z,14.95
2023-02-14T07:41:14.294Z,14.75
2023-02-14T07:43:50.248Z,14.55
2023-02-14T07:46:23.652Z,14.20
2023-02-14T07:48:54.718Z,13.43
2023-02-14T07:51:25.540Z,13.32
2023-02-14T07:53:56.439Z,13.50
2023-02-14T07:56:27.250Z,13.10
2023-02-14T07:58:58.054Z,14.50
2023-02-14T08:01:34.245Z,14.35
2023-02-14T08:04:05.125Z,14.90
2023-02-14T08:06:35.944Z,13.32
2023-02-14T08:09:06.918Z,14.43
2023-02-14T08:11:50.280Z,14.75
2023-02-14T08:14:21.321Z,14.73
2023-02-14T08:16:56.590Z,15.05
2023-02-14T08:19:27.569Z,15.65
2023-02-14T08:21:58.438Z,13.50
2023-02-14T08:24:29.864Z,15.27
2023-02-14T08:27:00.738Z,15.73
2023-02-14T08:29:34.665Z,15.07
2023-02-14T08:32:08.636Z,13.93
2023-02-14T08:34:39.515Z,15.60
2023-02-14T08:37:10.495Z,15.18
2023-02-14T08:39:42.398Z,15.27
2023-02-14T08:42:13.316Z,16.80
2023-02-14T08:44:49.902Z,13.70
2023-02-14T08:47:28.840Z,15.07
2023-02-14T08:49:59.731Z,13.10
2023-02-14T08:52:33.556Z,13.63
2023-02-14T08:55:05.157Z,13.10
2023-02-14T08:57:36.167Z,14.00
2023-02-14T09:00:08.570Z,14.30
2023-02-14T09:02:44.663Z,15.13
2023-02-14T09:05:18.262Z,15.20
2023-02-14T09:07:49.081Z,13.07
2023-02-14T09:10:21.299Z,13.63
2023-02-14T09:12:55.019Z,13.90
2023-02-14T09:15:25.890Z,13.40
2023-02-14T09:17:59.709Z,13.70
2023-02-14T09:20:30.607Z,12.43
2023-02-14T09:23:04.398Z,12.53
2023-02-14T09:25:35.221Z,13.00
2023-02-14T09:28:06.406Z,13.20
2023-02-14T09:30:37.242Z,11.77
2023-02-14T09:33:13.723Z,14.50
2023-02-14T09:38:32.825Z,13.87
2023-02-14T09:41:08.797Z,12.73
2023-02-14T09:43:47.555Z,12.53
2023-02-14T09:46:19.792Z,13.07
2023-02-14T09:48:54.341Z,13.93
2023-02-14T09:51:28.074Z,12.40
2023-02-14T09:54:04.931Z,12.30
2023-02-14T09:56:53.993Z,12.73
2023-02-14T09:59:31.036Z,10.93
2023-02-14T10:02:12.188Z,10.30
2023-02-14T10:04:50.677Z,10.80
2023-02-14T10:07:33.155Z,10.30
2023-02-14T10:10:09.926Z,9.17
2023-02-14T10:12:45.956Z,9.47
2023-02-14T10:15:21.133Z,9.40
2023-02-14T10:17:57.160Z,8.83
2023-02-14T10:20:35.318Z,10.23
2023-02-14T10:23:13.593Z,9.47
2023-02-14T10:25:51.476Z,10.30
2023-02-14T10:28:32.410Z,8.20
2023-02-14T10:31:20.391Z,8.00
2023-02-14T10:33:58.246Z,9.00
2023-02-14T10:36:50.316Z,8.40
2023-02-14T10:39:51.578Z,8.27
2023-02-14T10:42:31.273Z,8.10
2023-02-14T10:45:16.702Z,8.20
2023-02-14T10:47:55.440Z,8.30
2023-02-14T10:50:34.932Z,8.07
2023-02-14T10:53:19.102Z,6.83
2023-02-14T10:55:55.349Z,7.40
2023-02-14T10:58:30.142Z,8.57
2023-02-14T11:01:04.739Z,10.80
2023-02-14T11:03:37.613Z,10.30
2023-02-14T11:06:09.669Z,10.33
2023-02-14T11:08:44.279Z,10.00
2023-02-14T11:11:21.374Z,9.23
2023-02-14T11:13:52.309Z,9.50
2023-02-14T11:16:33.093Z,11.13
2023-02-14T11:19:23.830Z,11.93
2023-02-14T11:21:57.360Z,10.67
2023-02-14T11:24:46.085Z,11.10
2023-02-14T11:27:21.176Z,10.33
2023-02-14T11:29:56.247Z,8.60
2023-02-14T11:32:30.533Z,8.90
2023-02-14T11:35:04.410Z,8.63
2023-02-14T11:37:40.779Z,8.20
2023-02-14T11:40:33.385Z,8.60
2023-02-14T11:43:23.107Z,8.80
2023-02-14T11:46:11.420Z,8.43
2023-02-14T11:48:42.971Z,8.93
2023-02-14T11:51:16.524Z,9.30
2023-02-14T11:53:49.650Z,8.80
2023-02-14T11:56:24.785Z,8.27
2023-02-14T11:58:59.575Z,8.77
2023-02-14T12:01:38.682Z,8.50
2023-02-14T12:04:19.357Z,6.33
2023-02-14T12:06:50.775Z,6.13
2023-02-14T12:09:31.625Z,5.60
2023-02-14T12:12:07.515Z,5.60
2023-02-14T12:14:38.903Z,5.73
2023-02-14T12:17:21.562Z,6.30
2023-02-14T12:19:56.261Z,6.10
2023-02-14T12:22:32.298Z,5.90
2023-02-14T12:25:09.849Z,5.60
2023-02-14T12:27:50.748Z,5.13
2023-02-14T12:30:23.848Z,5.20
2023-02-14T12:32:59.011Z,5.43
2023-02-14T12:35:46.954Z,5.40
2023-02-14T12:38:28.355Z,5.00
2023-02-14T12:41:16.320Z,5.30
2023-02-14T12:43:55.937Z,5.53
2023-02-14T12:46:51.945Z,4.50
2023-02-14T12:49:49.465Z,5.60
2023-02-14T12:52:47.562Z,4.70
2023-02-14T12:55:41.534Z,5.00
2023-02-14T12:58:25.945Z,4.63
2023-02-14T13:01:10.930Z,4.40
2023-02-14T13:03:58.212Z,4.80
2023-02-14T13:06:33.876Z,4.80
2023-02-14T13:09:20.275Z,4.87
2023-02-14T13:12:04.377Z,5.13
2023-02-14T13:14:45.536Z,4.87
2023-02-14T13:17:28.412Z,4.30
2023-02-14T13:20:07.121Z,4.53
2023-02-14T13:22:39.286Z,5.27
2023-02-14T13:25:22.017Z,4.67
2023-02-14T13:27:53.839Z,4.23
2023-02-14T13:30:32.140Z,4.40
2023-02-14T13:33:10.729Z,4.43
2023-02-14T13:35:42.681Z,4.87
2023-02-14T13:38:18.534Z,4.50
2023-02-14T13:40:50.321Z,4.03
2023-02-14T13:43:52.306Z,4.23
2023-02-14T13:46:28.467Z,4.30
2023-02-14T13:49:04.942Z,4.07
2023-02-14T13:51:48.483Z,4.13
2023-02-14T13:54:33.605Z,5.20
2023-02-14T13:57:06.546Z,4.47
2023-02-14T13:59:38.394Z,4.97
2023-02-14T14:02:34.287Z,4.77
2023-02-14T14:05:43.739Z,4.77
2023-02-14T14:08:44.759Z,5.60
2023-02-14T14:11:44.899Z,5.80
2023-02-14T14:14:39.941Z,5.23
2023-02-14T14:17:25.943Z,5.97
2023-02-14T14:19:58.025Z,5.00
2023-02-14T14:22:35.919Z,7.23
2023-02-14T14:25:09.450Z,6.00
2023-02-14T14:27:45.148Z,6.83
2023-02-14T14:30:22.881Z,6.53
2023-02-14T14:32:53.737Z,5.73
2023-02-14T14:35:26.022Z,5.77
2023-02-14T14:38:00.782Z,6.00
2023-02-14T14:40:34.149Z,6.00
2023-02-14T14:43:09.487Z,6.00
2023-02-14T14:45:41.896Z,5.30
2023-02-14T14:48:16.296Z,5.03
2023-02-14T14:50:50.404Z,5.73
2023-02-14T14:53:28.402Z,6.07
2023-02-14T14:56:02.896Z,5.90
2023-02-14T14:58:40.147Z,5.93
2023-02-14T15:01:21.497Z,5.80
2023-02-14T15:03:52.459Z,5.37
2023-02-14T15:06:25.359Z,5.20
2023-02-14T15:09:16.990Z,5.40
2023-02-14T15:12:03.037Z,5.07
2023-02-14T15:14:39.920Z,6.07
2023-02-14T15:17:27.038Z,7.43
2023-02-14T15:20:00.514Z,6.90
2023-02-14T15:22:34.321Z,7.43
2023-02-14T15:25:12.717Z,7.10
2023-02-14T15:27:45.369Z,7.13
2023-02-14T15:30:29.175Z,8.40
2023-02-14T15:33:00.764Z,6.83
2023-02-14T15:35:36.865Z,7.20
2023-02-14T15:38:10.093Z,6.67
2023-02-14T15:40:54.626Z,6.80
2023-02-14T15:43:30.941Z,6.27
2023-02-14T15:46:15.465Z,6.83
2023-02-14T15:48:47.624Z,6.97
2023-02-14T15:51:22.420Z,7.73
2023-02-14T15:53:55.443Z,7.50
2023-02-14T15:56:34.084Z,7.50
2023-02-14T15:59:11.485Z,7.13
2023-02-14T16:01:44.476Z,7.73
2023-02-14T16:04:15.317Z,7.67
2023-02-14T16:06:50.206Z,7.47
2023-02-14T16:09:29.392Z,8.10
2023-02-14T16:12:14.204Z,7.97
2023-02-14T16:14:46.568Z,10.07
2023-02-14T16:17:33.366Z,9.27
2023-02-14T16:20:23.486Z,10.67
2023-02-14T16:22:55.342Z,9.87
2023-02-14T16:25:26.760Z,10.53
2023-02-14T16:28:00.259Z,10.67
2023-02-14T16:30:31.005Z,10.00
2023-02-14T16:33:04.671Z,10.20
2023-02-14T16:35:36.045Z,9.60
2023-02-14T16:38:15.889Z,10.73
2023-02-14T16:40:50.236Z,10.60
2023-02-14T16:43:24.478Z,10.40
2023-02-14T16:45:55.433Z,10.67
2023-02-14T16:48:29.441Z,11.30
2023-02-14T16:51:00.548Z,13.03
2023-02-14T16:53:34.511Z,13.13
2023-02-14T16:56:05.618Z,12.37
2023-02-14T16:58:39.627Z,12.67
2023-02-14T17:01:10.650Z,15.00
2023-02-14T17:03:43.528Z,14.37
2023-02-14T17:06:18.427Z,13.30
2023-02-14T17:08:51.533Z,14.00
2023-02-14T17:11:23.112Z,13.93
2023-02-14T17:13:58.516Z,12.67
2023-02-14T17:16:33.500Z,14.00
2023-02-14T17:19:05.714Z,14.23
2023-02-14T17:21:36.815Z,13.63
2023-02-14T17:24:08.015Z,13.73
2023-02-14T17:26:38.852Z,13.30
2023-02-14T17:29:13.458Z,12.47
2023-02-14T17:31:44.249Z,12.90
2023-02-14T17:34:14.969Z,12.50
2023-02-14T17:36:45.708Z,12.47
2023-02-14T17:39:17.069Z,10.97
2023-02-14T17:41:47.873Z,12.33
2023-02-14T17:44:21.565Z,10.97
2023-02-14T17:46:54.624Z,11.80
2023-02-14T17:49:25.532Z,12.20
2023-02-14T17:51:56.481Z,14.03
2023-02-14T17:54:27.242Z,14.90
2023-02-14T17:57:08.209Z,15.03
2023-02-14T17:59:42.480Z,17.60
2023-02-14T18:02:13.665Z,18.00
2023-02-14T18:04:44.403Z,17.20
2023-02-14T18:07:15.203Z,19.60
2023-02-14T18:09:54.212Z,20.00
2023-02-14T18:12:24.987Z,20.23
2023-02-14T18:14:58.665Z,20.40
2023-02-14T18:17:29.506Z,19.90
2023-02-14T18:20:00.332Z,19.53
2023-02-14T18:22:31.193Z,18.50
2023-02-14T18:25:03.865Z,19.60
2023-02-14T18:27:34.708Z,20.23
2023-02-14T18:30:09.680Z,21.67
2023-02-14T18:32:40.461Z,20.87
2023-02-14T18:35:14.425Z,20.90
2023-02-14T18:37:45.266Z,21.40
2023-02-14T18:40:20.225Z,21.90
2023-02-14T18:42:51.231Z,20.33
2023-02-14T18:45:24.613Z,22.07
2023-02-14T18:47:55.403Z,19.77
2023-02-14T18:50:26.080Z,22.37
2023-02-14T18:52:56.907Z,21.80
2023-02-14T18:55:28.818Z,22.40
2023-02-14T18:57:59.619Z,20.80
2023-02-14T19:00:34.974Z,20.83
2023-02-14T19:03:07.668Z,21.57
2023-02-14T19:05:40.771Z,20.40
2023-02-14T19:08:12.154Z,19.90
2023-02-14T19:10:42.841Z,18.00
2023-02-14T19:16:13.106Z,18.33
2023-02-14T19:18:43.895Z,18.70
2023-02-14T19:21:15.389Z,18.47
2023-02-14T19:23:47.174Z,18.90
2023-02-14T19:26:20.150Z,19.20
2023-02-14T19:28:53.237Z,16.97
2023-02-14T19:31:26.875Z,15.63
2023-02-14T19:33:58.065Z,15.43
2023-02-14T19:36:28.782Z,15.13
2023-02-14T19:38:59.662Z,15.60
2023-02-14T19:41:37.297Z,14.07
2023-02-14T19:44:09.581Z,14.80
2023-02-14T19:46:43.780Z,13.10
2023-02-14T19:49:17.398Z,13.50
2023-02-14T19:51:55.058Z,13.60
2023-02-14T19:54:26.042Z,13.57
2023-02-14T19:56:57.515Z,13.10
2023-02-14T19:59:43.447Z,13.77
2023-02-14T20:02:21.943Z,12.83
2023-02-14T20:04:58.981Z,12.80
2023-02-14T20:07:29.739Z,13.57
2023-02-14T20:10:02.789Z,12.40
2023-02-14T20:12:33.661Z,13.07
2023-02-14T20:15:05.491Z,13.33
2023-02-14T20:17:39.001Z,14.00
2023-02-14T20:20:14.631Z,12.53
2023-02-14T20:22:47.680Z,13.17
2023-02-14T20:25:18.503Z,12.80
2023-02-14T20:27:52.650Z,13.60
2023-02-14T20:30:23.698Z,13.20
2023-02-14T20:32:57.014Z,13.10
2023-02-14T20:35:27.762Z,12.93
2023-02-14T20:37:58.761Z,12.77
2023-02-14T20:40:29.558Z,13.00
2023-02-14T20:43:00.311Z,13.97
2023-02-14T20:45:32.329Z,12.67
2023-02-14T20:48:07.026Z,13.80
2023-02-14T20:50:38.105Z,13.30
2023-02-14T20:53:11.176Z,14.60
2023-02-14T20:55:44.707Z,14.20
2023-02-14T20:58:18.329Z,14.93
2023-02-14T21:00:49.509Z,13.77
2023-02-14T21:03:23.855Z,13.90
2023-02-14T21:05:54.621Z,13.20
2023-02-14T21:08:25.366Z,14.23
2023-02-14T21:10:56.202Z,14.70
2023-02-14T21:13:26.991Z,13.93
2023-02-14T21:15:57.964Z,14.60
2023-02-14T21:18:31.386Z,14.13
2023-02-14T21:21:07.036Z,16.10
2023-02-14T21:23:38.044Z,15.37
2023-02-14T21:26:08.884Z,15.53
2023-02-14T21:28:39.707Z,16.37
2023-02-14T21:31:12.378Z,16.33
2023-02-14T21:33:45.964Z,15.97
2023-02-14T21:36:19.127Z,16.17
2023-02-14T21:38:49.999Z,16.50
2023-02-14T21:41:23.412Z,16.83
2023-02-14T21:43:56.572Z,16.70
2023-02-14T21:46:31.097Z,16.40
2023-02-14T21:49:18.441Z,17.20
2023-02-14T21:51:50.089Z,15.90
2023-02-14T21:54:23.998Z,15.10
2023-02-14T21:56:54.672Z,15.43
2023-02-14T21:59:25.649Z,15.33
2023-02-14T22:01:56.441Z,15.50
2023-02-14T22:04:29.849Z,15.70
2023-02-14T22:07:00.742Z,15.83
2023-02-14T22:09:34.286Z,14.90
2023-02-14T22:12:05.069Z,16.57
2023-02-14T22:14:35.993Z,17.07
2023-02-14T22:17:06.717Z,15.90
2023-02-14T22:19:41.189Z,16.30
2023-02-14T22:22:12.125Z,16.40
2023-02-14T22:24:42.875Z,16.90
2023-02-14T22:27:13.620Z,15.88
2023-02-14T22:29:44.359Z,16.30
2023-02-14T22:32:15.229Z,14.80
2023-02-14T22:34:48.866Z,16.03
2023-02-14T22:37:20.138Z,15.60
2023-02-14T22:39:50.866Z,14.80
2023-02-14T22:42:24.738Z,16.00
2023-02-14T22:44:55.634Z,15.80
2023-02-14T22:47:31.609Z,15.40
2023-02-14T22:50:05.562Z,14.17
2023-02-14T22:52:37.525Z,15.37
2023-02-14T22:55:10.157Z,15.23
2023-02-14T22:57:41.810Z,15.70
2023-02-14T23:00:14.378Z,15.80
2023-02-14T23:02:45.172Z,15.23
2023-02-14T23:05:18.732Z,15.15
2023-02-14T23:07:49.878Z,14.75
2023-02-14T23:10:20.915Z,14.20
2023-02-14T23:13:07.801Z,14.87
2023-02-14T23:15:51.029Z,15.23
2023-02-14T23:18:34.335Z,14.25
2023-02-14T23:21:28.096Z,15.37
2023-02-14T23:23:59.028Z,14.40
2023-02-14T23:26:29.843Z,15.65
2023-02-14T23:29:00.878Z,16.60
2023-02-14T23:31:32.896Z,13.95
2023-02-14T23:34:07.135Z,15.10
2023-02-14T23:36:40.717Z,15.43
2023-02-14T23:39:11.532Z,16.00
2023-02-14T23:41:51.370Z,15.10
2023-02-14T23:44:24.664Z,14.63
2023-02-14T23:46:57.237Z,14.73
2023-02-14T23:49:28.929Z,14.80
2023-02-14T23:52:02.783Z,15.20
2023-02-14T23:54:33.566Z,14.90
2023-02-14T23:57:04.537Z,15.65
2023-02-14T23:59:35.740Z,15.27
